Time;durP1;ratioP1;P1;durP2;ratioP2;P2;SDS_P1;SDS_P2;PMS_P1;PMS_P2;Temp;Humidity;BMP_temperature;BMP_pressure;BME280_temperature;BME280_humidity;BME280_pressure;Samples;Min_cycle;Max_cycle;Signal;HPM_P1;HPM_P2
2023/02/22 00:00:18;;;;;;;35.07;20.60;;;11.00;99.90;;;;;;4993433;28;20448;-68
2023/02/22 00:02:47;;;;;;;38.77;21.10;;;10.90;99.90;;;;;;4993350;28;20912;-68
2023/02/22 00:05:15;;;;;;;32.93;19.53;;;10.90;99.90;;;;;;4975561;28;20462;-68
2023/02/22 00:07:43;;;;;;;36.63;20.50;;;10.90;99.90;;;;;;4993602;28;20453;-67
2023/02/22 00:10:12;;;;;;;31.30;19.30;;;10.80;99.90;;;;;;4992481;28;20888;-68
2023/02/22 00:12:41;;;;;;;30.60;19.37;;;10.80;99.90;;;;;;4993064;28;20460;-67
2023/02/22 00:15:09;;;;;;;33.37;18.20;;;10.90;99.90;;;;;;4992944;28;20420;-68
2023/02/22 00:17:35;;;;;;;29.83;18.87;;;10.70;99.90;;;;;;4993426;28;20410;-68
2023/02/22 00:20:05;;;;;;;25.57;17.30;;;10.80;99.90;;;;;;4992498;28;20905;-68
2023/02/22 00:22:31;;;;;;;31.63;18.30;;;10.70;99.90;;;;;;4993570;28;20761;-68
2023/02/22 00:24:57;;;;;;;26.57;18.50;;;10.80;99.90;;;;;;4992743;28;20467;-68
2023/02/22 00:27:22;;;;;;;23.97;16.53;;;10.80;99.90;;;;;;4992923;28;20422;-68
2023/02/22 00:29:48;;;;;;;34.00;21.60;;;10.70;99.90;;;;;;4993462;28;20178;-68
2023/02/22 00:32:14;;;;;;;29.20;18.83;;;10.80;99.90;;;;;;4992650;28;20705;-68
2023/02/22 00:34:42;;;;;;;38.07;18.10;;;10.70;99.90;;;;;;4993265;28;20202;-68
2023/02/22 00:37:09;;;;;;;28.90;18.20;;;10.80;99.90;;;;;;4992484;28;20179;-68
2023/02/22 00:39:35;;;;;;;32.77;18.67;;;10.70;99.90;;;;;;4993201;28;20453;-68
2023/02/22 00:42:02;;;;;;;46.97;19.43;;;10.70;99.90;;;;;;4975128;28;20427;-68
2023/02/22 00:44:28;;;;;;;49.43;20.47;;;10.60;99.90;;;;;;4991901;28;20218;-67
2023/02/22 00:46:54;;;;;;;36.17;19.10;;;10.60;99.90;;;;;;4992698;28;21037;-68
2023/02/22 00:49:19;;;;;;;34.70;19.70;;;10.60;99.90;;;;;;4975156;28;20273;-68
2023/02/22 00:51:45;;;;;;;36.70;18.47;;;10.50;99.90;;;;;;4992893;28;20186;-68
2023/02/22 00:54:11;;;;;;;36.07;18.60;;;10.50;99.90;;;;;;4992513;28;20190;-68
2023/02/22 00:56:36;;;;;;;40.33;18.47;;;10.60;99.90;;;;;;4993040;28;20190;-68
2023/02/22 00:59:05;;;;;;;40.17;19.73;;;10.60;99.90;;;;;;4992429;28;20185;-68
2023/02/22 01:01:31;;;;;;;47.23;19.30;;;10.60;99.90;;;;;;4992760;28;20194;-68
2023/02/22 01:03:56;;;;;;;33.70;17.90;;;10.70;99.90;;;;;;4992418;28;20416;-70
2023/02/22 01:06:22;;;;;;;27.00;16.53;;;10.60;99.90;;;;;;4992925;28;20948;-68
2023/02/22 01:08:48;;;;;;;54.87;18.57;;;10.60;99.90;;;;;;4993296;28;20679;-67
2023/02/22 01:11:15;;;;;;;31.90;17.43;;;10.50;99.90;;;;;;4992037;28;20227;-68
2023/02/22 01:13:44;;;;;;;41.53;17.53;;;10.50;99.90;;;;;;4992940;28;20457;-68
2023/02/22 01:16:10;;;;;;;26.50;15.57;;;10.60;99.90;;;;;;4992246;28;20426;-68
2023/02/22 01:18:36;;;;;;;37.33;15.00;;;10.50;99.90;;;;;;4991776;28;20427;-68
2023/02/22 01:21:04;;;;;;;36.73;14.93;;;10.40;99.90;;;;;;4991467;28;20813;-68
2023/02/22 01:23:30;;;;;;;30.00;15.70;;;10.30;99.90;;;;;;4991444;28;20425;-68
2023/02/22 01:25:56;;;;;;;29.33;15.77;;;10.10;99.90;;;;;;4992598;28;20798;-68
2023/02/22 01:28:23;;;;;;;45.30;17.40;;;10.10;99.90;;;;;;4993305;28;20435;-68
2023/02/22 01:30:48;;;;;;;26.40;15.67;;;10.20;99.90;;;;;;5001515;28;20902;-68
2023/02/22 01:33:14;;;;;;;25.10;15.20;;;10.20;99.90;;;;;;4972744;28;20471;-68
2023/02/22 01:35:42;;;;;;;29.87;15.10;;;10.30;99.90;;;;;;4982092;28;20196;-68
2023/02/22 01:38:09;;;;;;;36.03;15.80;;;10.20;99.90;;;;;;4991520;28;20459;-68
2023/02/22 01:40:37;;;;;;;33.37;14.97;;;10.20;99.90;;;;;;4991652;28;20465;-68
2023/02/22 01:43:25;;;;;;;50.03;15.13;;;10.20;99.90;;;;;;4991434;28;20433;-68
2023/02/22 01:46:16;;;;;;;28.07;15.30;;;10.30;99.90;;;;;;4991978;28;20469;-67
2023/02/22 01:48:47;;;;;;;32.03;14.97;;;10.30;99.90;;;;;;4994033;28;20435;-68
2023/02/22 01:51:18;;;;;;;37.50;15.93;;;10.30;99.90;;;;;;4995490;28;20504;-68
2023/02/22 01:53:54;;;;;;;29.57;15.30;;;10.30;99.90;;;;;;4995489;28;20781;-68
2023/02/22 01:56:22;;;;;;;23.20;14.70;;;10.30;99.90;;;;;;4995391;28;20436;-68
2023/02/22 01:59:08;;;;;;;24.83;16.00;;;10.30;99.90;;;;;;4994716;28;20530;-68
2023/02/22 02:01:36;;;;;;;32.97;15.60;;;10.30;99.90;;;;;;4994076;28;20437;-68
2023/02/22 02:04:06;;;;;;;25.87;15.30;;;10.30;99.90;;;;;;4994676;28;20429;-69
2023/02/22 02:06:34;;;;;;;25.80;14.97;;;10.20;99.90;;;;;;4995058;28;20946;-68
2023/02/22 02:09:22;;;;;;;53.17;15.17;;;10.20;99.90;;;;;;4994637;28;20437;-72
2023/02/22 02:11:49;;;;;;;50.03;14.10;;;10.20;99.90;;;;;;4976397;28;20508;-69
2023/02/22 02:14:15;;;;;;;26.80;13.27;;;10.30;99.90;;;;;;4994757;28;20507;-68
2023/02/22 02:16:41;;;;;;;26.40;13.60;;;10.20;99.90;;;;;;4995604;28;20883;-68
2023/02/22 02:19:17;;;;;;;19.80;13.33;;;10.20;99.90;;;;;;4993759;28;20784;-68
2023/02/22 02:21:56;;;;;;;47.47;15.23;;;10.10;99.90;;;;;;4994924;28;20520;-68
2023/02/22 02:24:38;;;;;;;21.43;13.30;;;10.10;99.90;;;;;;4979049;28;20430;-68
2023/02/22 02:27:10;;;;;;;44.73;14.43;;;10.10;99.90;;;;;;4992282;28;20441;-68
2023/02/22 02:29:38;;;;;;;42.70;14.33;;;10.10;99.90;;;;;;4994818;28;20774;-68
2023/02/22 02:32:20;;;;;;;60.53;14.27;;;10.10;99.90;;;;;;4994028;28;20421;-68
2023/02/22 02:35:13;;;;;;;38.20;14.10;;;10.10;99.90;;;;;;4994576;28;20497;-68
2023/02/22 02:37:54;;;;;;;36.83;13.60;;;10.00;99.90;;;;;;4991827;28;20431;-68
2023/02/22 02:40:27;;;;;;;43.17;15.20;;;10.00;99.90;;;;;;4993689;28;20967;-68
2023/02/22 02:43:14;;;;;;;36.20;16.07;;;10.10;99.90;;;;;;4994600;28;20498;-68
2023/02/22 02:45:51;;;;;;;31.17;13.60;;;10.00;99.90;;;;;;4995335;28;20441;-68
2023/02/22 02:48:23;;;;;;;33.57;12.20;;;10.00;99.90;;;;;;4994798;28;20429;-68
2023/02/22 02:50:51;;;;;;;35.83;14.10;;;10.00;99.90;;;;;;4995104;28;20401;-68
2023/02/22 02:53:21;;;;;;;23.77;13.90;;;10.00;99.90;;;;;;4994249;28;20426;-68
2023/02/22 02:55:47;;;;;;;29.37;13.20;;;9.90;99.90;;;;;;4994834;28;20427;-68
2023/02/22 02:58:20;;;;;;;23.07;13.20;;;9.90;99.90;;;;;;4994015;28;20891;-68
2023/02/22 03:00:48;;;;;;;19.07;13.23;;;9.80;99.90;;;;;;4993546;28;20184;-68
2023/02/22 03:03:25;;;;;;;20.67;12.93;;;9.90;99.90;;;;;;4994180;28;20425;-68
2023/02/22 03:06:03;;;;;;;20.23;13.60;;;9.80;99.90;;;;;;4994416;28;20852;-67
2023/02/22 03:09:07;;;;;;;29.77;13.50;;;9.90;99.90;;;;;;4994737;28;20427;-68
2023/02/22 03:12:07;;;;;;;19.00;12.90;;;9.90;99.90;;;;;;4971568;28;20800;-68
2023/02/22 03:14:45;;;;;;;20.23;12.60;;;9.90;99.90;;;;;;4974604;28;20484;-67
2023/02/22 03:17:21;;;;;;;30.90;13.57;;;9.80;99.90;;;;;;4993770;28;20787;-68
2023/02/22 03:19:55;;;;;;;33.60;13.13;;;9.80;99.90;;;;;;4994503;28;20399;-67
2023/02/22 03:22:36;;;;;;;32.33;13.57;;;9.80;99.90;;;;;;4993875;28;20444;-68
2023/02/22 03:25:09;;;;;;;38.00;11.70;;;9.80;99.90;;;;;;4994421;28;20469;-68
2023/02/22 03:27:52;;;;;;;32.33;12.50;;;9.70;99.90;;;;;;4994393;28;20421;-67
2023/02/22 03:30:45;;;;;;;38.13;13.63;;;9.60;99.90;;;;;;4993711;28;20395;-68
2023/02/22 03:33:27;;;;;;;48.50;12.50;;;9.60;99.90;;;;;;4993960;28;20406;-68
2023/02/22 03:36:01;;;;;;;22.47;12.03;;;9.60;99.90;;;;;;4994226;28;20423;-68
2023/02/22 03:38:30;;;;;;;17.93;11.90;;;9.50;99.90;;;;;;4993512;28;20409;-68
2023/02/22 03:41:00;;;;;;;20.20;12.23;;;9.50;99.90;;;;;;4994098;28;20636;-68
2023/02/22 03:43:36;;;;;;;17.83;11.67;;;9.50;99.90;;;;;;4993431;28;20405;-68
2023/02/22 03:46:03;;;;;;;37.77;13.07;;;9.50;99.90;;;;;;4993998;28;20470;-68
2023/02/22 03:48:51;;;;;;;25.20;11.80;;;9.50;99.90;;;;;;4993339;28;20412;-68
2023/02/22 03:51:17;;;;;;;22.43;12.23;;;9.50;99.90;;;;;;4993220;28;20800;-68
2023/02/22 03:53:43;;;;;;;23.07;11.60;;;9.50;99.90;;;;;;4994071;28;20427;-68
2023/02/22 03:56:14;;;;;;;24.03;11.90;;;9.50;99.90;;;;;;4993241;28;20416;-68
2023/02/22 03:58:46;;;;;;;34.47;11.20;;;9.50;99.90;;;;;;4993791;28;20429;-68
2023/02/22 04:01:12;;;;;;;45.27;15.07;;;9.50;99.90;;;;;;4992868;28;20869;-68
2023/02/22 04:03:39;;;;;;;38.77;11.67;;;9.50;99.90;;;;;;4993633;28;20421;-68
2023/02/22 04:06:05;;;;;;;34.73;12.43;;;9.40;99.90;;;;;;4993622;28;20454;-67
2023/02/22 04:08:30;;;;;;;34.27;11.60;;;9.40;99.90;;;;;;4992865;28;20430;-67
2023/02/22 04:10:57;;;;;;;29.00;11.90;;;9.30;99.90;;;;;;4993342;28;20423;-67
2023/02/22 04:13:23;;;;;;;47.30;12.90;;;9.30;99.90;;;;;;4992997;28;20180;-67
2023/02/22 04:15:48;;;;;;;14.47;11.07;;;9.20;99.90;;;;;;4993559;28;20427;-67
2023/02/22 04:18:14;;;;;;;22.80;10.83;;;9.20;99.90;;;;;;4993155;28;20183;-67
2023/02/22 04:20:40;;;;;;;18.03;10.40;;;9.20;99.90;;;;;;4993627;28;20193;-68
2023/02/22 04:23:05;;;;;;;21.53;11.87;;;9.20;99.90;;;;;;4993452;28;20541;-67
2023/02/22 04:25:31;;;;;;;37.40;11.87;;;9.20;99.90;;;;;;4992528;28;20209;-68
2023/02/22 04:27:57;;;;;;;21.63;10.57;;;9.20;99.90;;;;;;4993317;28;20234;-68
2023/02/22 04:30:23;;;;;;;25.10;9.63;;;9.20;99.90;;;;;;4992643;28;20899;-67
2023/02/22 04:32:48;;;;;;;16.50;9.80;;;9.10;99.90;;;;;;4993044;28;20189;-68
2023/02/22 04:35:14;;;;;;;23.70;9.93;;;9.10;99.90;;;;;;4992656;28;20177;-68
2023/02/22 04:37:40;;;;;;;21.40;9.93;;;9.10;99.90;;;;;;4993176;28;20175;-68
2023/02/22 04:40:06;;;;;;;13.40;9.40;;;9.10;99.90;;;;;;4993589;28;20617;-67
2023/02/22 04:42:37;;;;;;;10.90;8.77;;;9.10;99.90;;;;;;4992709;28;20188;-67
2023/02/22 04:45:05;;;;;;;20.50;10.13;;;9.10;99.90;;;;;;4993288;28;20457;-67
2023/02/22 04:47:30;;;;;;;17.37;9.30;;;9.10;99.90;;;;;;4975263;28;20534;-67
2023/02/22 04:49:56;;;;;;;24.17;9.50;;;9.10;99.90;;;;;;4993254;28;20954;-68
2023/02/22 04:52:22;;;;;;;17.13;9.37;;;9.10;99.90;;;;;;4992208;28;20183;-68
2023/02/22 04:54:47;;;;;;;15.60;8.97;;;9.10;99.90;;;;;;4993433;28;20187;-67
2023/02/22 04:57:13;;;;;;;23.50;8.47;;;9.10;99.90;;;;;;4992565;28;20631;-68
2023/02/22 04:59:39;;;;;;;20.27;9.27;;;9.10;99.90;;;;;;4992993;28;20180;-67
2023/02/22 05:02:05;;;;;;;17.50;9.30;;;9.00;99.90;;;;;;4993000;28;20172;-67
2023/02/22 05:04:31;;;;;;;17.87;8.83;;;9.10;99.90;;;;;;4992091;28;20572;-68
2023/02/22 05:06:56;;;;;;;11.97;8.40;;;9.10;99.90;;;;;;4992950;28;20458;-67
2023/02/22 05:09:22;;;;;;;16.53;8.47;;;9.10;99.90;;;;;;4992454;28;20187;-68
2023/02/22 05:11:48;;;;;;;16.17;9.10;;;9.00;99.90;;;;;;4992567;28;20223;-67
2023/02/22 05:14:14;;;;;;;20.50;8.53;;;9.10;99.90;;;;;;4992334;28;20631;-68
2023/02/22 05:16:40;;;;;;;13.27;8.60;;;9.00;99.90;;;;;;4985089;28;20193;-68
2023/02/22 05:19:05;;;;;;;10.33;7.80;;;9.00;99.90;;;;;;4992884;28;20176;-67
2023/02/22 05:21:32;;;;;;;16.60;9.10;;;9.10;99.90;;;;;;4992277;28;20462;-67
2023/02/22 05:23:58;;;;;;;19.73;10.53;;;9.00;99.90;;;;;;4995638;28;20188;-68
2023/02/22 05:26:24;;;;;;;43.93;11.03;;;9.00;99.90;;;;;;4994465;28;20458;-68
2023/02/22 05:28:49;;;;;;;28.37;8.67;;;8.90;99.90;;;;;;4996816;28;20576;-67
2023/02/22 05:31:16;;;;;;;12.30;7.97;;;9.00;99.90;;;;;;4996075;28;20184;-68
2023/02/22 05:33:42;;;;;;;11.40;8.70;;;8.90;99.90;;;;;;4996303;28;20196;-67
2023/02/22 05:36:08;;;;;;;16.90;7.97;;;8.90;99.90;;;;;;4996083;28;20419;-67
2023/02/22 05:38:42;;;;;;;18.37;7.40;;;8.90;99.90;;;;;;4995765;28;20199;-68
2023/02/22 05:41:08;;;;;;;26.33;8.50;;;8.80;99.90;;;;;;4996194;28;20414;-68
2023/02/22 05:43:34;;;;;;;21.87;8.20;;;8.80;99.90;;;;;;4995696;28;20431;-68
2023/02/22 05:46:00;;;;;;;12.60;7.70;;;8.80;99.90;;;;;;4996275;28;20454;-68
2023/02/22 05:48:25;;;;;;;43.50;10.37;;;8.80;99.90;;;;;;4995795;28;20184;-68
2023/02/22 05:50:51;;;;;;;31.37;9.93;;;8.80;99.90;;;;;;4996368;28;20180;-68
2023/02/22 05:53:17;;;;;;;17.33;8.83;;;8.70;99.90;;;;;;4995784;28;20628;-68
2023/02/22 05:55:42;;;;;;;24.60;8.20;;;8.70;99.90;;;;;;4995864;28;20238;-68
2023/02/22 05:58:08;;;;;;;47.53;9.80;;;8.70;99.90;;;;;;4996232;28;20179;-67
2023/02/22 06:00:34;;;;;;;34.37;10.50;;;8.80;99.90;;;;;;4995359;28;20211;-67
2023/02/22 06:03:03;;;;;;;23.87;9.20;;;8.80;99.90;;;;;;4996132;28;20238;-67
2023/02/22 06:05:28;;;;;;;35.07;9.90;;;8.70;99.90;;;;;;4995180;28;20553;-68
2023/02/22 06:07:55;;;;;;;36.57;9.07;;;8.70;99.90;;;;;;4995611;28;20418;-67
2023/02/22 06:10:22;;;;;;;25.53;8.93;;;8.60;99.90;;;;;;4994226;28;20728;-72
2023/02/22 06:12:48;;;;;;;25.57;9.13;;;8.60;99.90;;;;;;4992186;28;20463;-70
2023/02/22 06:15:15;;;;;;;21.47;8.47;;;8.60;99.90;;;;;;4993977;28;20443;-71
2023/02/22 06:17:41;;;;;;;17.10;9.83;;;8.60;99.90;;;;;;4994865;28;20466;-69
2023/02/22 06:20:09;;;;;;;21.90;11.43;;;8.60;99.90;;;;;;4995572;28;20411;-68
2023/02/22 06:22:35;;;;;;;67.43;12.20;;;8.60;99.90;;;;;;4994871;28;20438;-70
2023/02/22 06:25:04;;;;;;;37.07;11.20;;;8.60;99.90;;;;;;4993653;28;20489;-66
2023/02/22 06:27:31;;;;;;;25.43;10.70;;;8.60;99.90;;;;;;4994792;28;20219;-66
2023/02/22 06:29:57;;;;;;;47.47;10.77;;;8.60;99.90;;;;;;4995460;28;20425;-66
2023/02/22 06:32:23;;;;;;;27.87;9.03;;;8.60;99.90;;;;;;4994518;28;20526;-66
2023/02/22 06:34:49;;;;;;;34.13;10.43;;;8.50;99.90;;;;;;4994717;28;20512;-65
2023/02/22 06:37:14;;;;;;;55.27;11.70;;;8.50;99.90;;;;;;4995266;28;20176;-66
2023/02/22 06:39:40;;;;;;;49.30;10.13;;;8.50;99.90;;;;;;4998287;28;20258;-66
2023/02/22 06:42:06;;;;;;;54.50;10.03;;;8.50;99.90;;;;;;4982039;28;20278;-66
2023/02/22 06:44:31;;;;;;;53.77;13.20;;;8.50;99.90;;;;;;4993879;28;20180;-66
2023/02/22 06:46:58;;;;;;;34.77;10.10;;;8.40;99.90;;;;;;4994058;28;20261;-64
2023/02/22 06:49:26;;;;;;;13.30;8.30;;;8.50;99.90;;;;;;4993706;28;20219;-65
2023/02/22 06:51:52;;;;;;;14.97;9.57;;;8.40;99.90;;;;;;4994407;28;20423;-65
2023/02/22 06:54:18;;;;;;;15.30;8.63;;;8.40;99.90;;;;;;4993377;28;20470;-69
2023/02/22 06:56:44;;;;;;;16.33;8.57;;;8.30;99.90;;;;;;4994042;28;20426;-66
2023/02/22 06:59:10;;;;;;;11.07;9.23;;;8.40;99.90;;;;;;4994282;28;20918;-66
2023/02/22 07:01:36;;;;;;;12.67;8.60;;;8.40;99.90;;;;;;4993172;28;20281;-67
2023/02/22 07:04:02;;;;;;;12.30;9.30;;;8.30;99.90;;;;;;4994678;28;20635;-67
2023/02/22 07:06:28;;;;;;;13.10;9.73;;;8.40;99.90;;;;;;4993958;28;20266;-66
2023/02/22 07:08:54;;;;;;;13.57;10.30;;;8.30;99.90;;;;;;4994500;28;20918;-67
2023/02/22 07:11:19;;;;;;;17.77;9.57;;;8.40;99.90;;;;;;4992684;28;20470;-68
2023/02/22 07:13:45;;;;;;;11.40;9.60;;;8.50;99.90;;;;;;4994549;28;20593;-68
2023/02/22 07:16:13;;;;;;;11.97;10.20;;;8.40;99.90;;;;;;4993016;28;20179;-73
2023/02/22 07:18:39;;;;;;;18.97;12.13;;;8.40;99.90;;;;;;4997465;28;20645;-68
2023/02/22 07:21:05;;;;;;;36.73;11.07;;;8.40;99.90;;;;;;5007841;28;20492;-67
2023/02/22 07:23:30;;;;;;;12.77;10.07;;;8.40;99.90;;;;;;4998002;28;20258;-68
2023/02/22 07:25:59;;;;;;;13.53;10.07;;;8.40;99.90;;;;;;4994218;28;20813;-68
2023/02/22 07:28:25;;;;;;;17.33;11.20;;;8.40;99.90;;;;;;4994328;28;20198;-68
2023/02/22 07:30:50;;;;;;;13.60;10.17;;;8.40;99.90;;;;;;4998799;28;20485;-68
2023/02/22 07:33:16;;;;;;;16.40;9.63;;;8.40;99.90;;;;;;4976676;28;20227;-67
2023/02/22 07:35:47;;;;;;;14.03;9.90;;;8.40;99.90;;;;;;4993971;28;20198;-68
2023/02/22 07:38:15;;;;;;;14.10;10.20;;;8.50;99.90;;;;;;4992264;28;20187;-67
2023/02/22 07:40:41;;;;;;;16.60;10.70;;;8.50;99.90;;;;;;4993323;28;20463;-66
2023/02/22 07:43:42;;;;;;;14.03;10.27;;;8.50;99.90;;;;;;4994017;28;20408;-69
2023/02/22 07:46:08;;;;;;;13.00;11.67;;;8.70;99.90;;;;;;4990075;28;20970;-68
2023/02/22 07:48:33;;;;;;;14.03;11.17;;;9.30;99.90;;;;;;4990912;28;20442;-79
2023/02/22 07:50:59;;;;;;;14.73;10.77;;;10.10;99.90;;;;;;4993726;28;20187;-71
2023/02/22 07:53:32;;;;;;;11.10;9.53;;;10.70;99.90;;;;;;4992751;28;20235;-71
2023/02/22 07:56:00;;;;;;;12.50;10.30;;;10.90;99.90;;;;;;4991919;28;20237;-68
2023/02/22 07:58:27;;;;;;;10.33;9.23;;;10.90;99.90;;;;;;4979920;28;20421;-72
2023/02/22 08:00:53;;;;;;;14.03;9.60;;;10.90;99.90;;;;;;4978585;28;20880;-72
2023/02/22 08:03:21;;;;;;;12.03;9.50;;;10.80;99.90;;;;;;4976519;28;20426;-71
2023/02/22 08:05:54;;;;;;;11.00;9.80;;;10.80;99.90;;;;;;4966774;28;20459;-71
2023/02/22 08:08:20;;;;;;;13.70;9.80;;;10.60;99.90;;;;;;4967189;28;20454;-69
2023/02/22 08:10:46;;;;;;;12.20;10.97;;;10.50;99.90;;;;;;4979502;28;20426;-71
2023/02/22 08:13:12;;;;;;;12.17;10.97;;;10.40;99.90;;;;;;4985504;28;20417;-72
2023/02/22 08:15:39;;;;;;;11.17;9.90;;;10.30;99.90;;;;;;4986293;28;20778;-72
2023/02/22 08:18:08;;;;;;;12.47;11.20;;;10.20;99.90;;;;;;4983447;28;20578;-72
2023/02/22 08:20:34;;;;;;;14.60;10.67;;;10.20;99.90;;;;;;4976974;28;20427;-72
2023/02/22 08:23:00;;;;;;;13.50;10.97;;;10.20;99.90;;;;;;4990045;28;20506;-72
2023/02/22 08:25:28;;;;;;;19.70;13.00;;;10.20;99.90;;;;;;4974379;28;20498;-72
2023/02/22 08:28:05;;;;;;;14.00;11.97;;;10.20;99.90;;;;;;4976791;28;20917;-72
2023/02/22 08:30:33;;;;;;;13.90;12.23;;;10.20;99.90;;;;;;4975932;28;20404;-70
2023/02/22 08:33:01;;;;;;;17.17;13.53;;;10.20;99.90;;;;;;4987901;28;20431;-70
2023/02/22 08:35:28;;;;;;;17.17;10.40;;;10.30;99.90;;;;;;4972900;28;20423;-69
2023/02/22 08:37:57;;;;;;;17.30;12.90;;;10.40;99.90;;;;;;4978213;28;20419;-69
2023/02/22 08:40:26;;;;;;;17.17;13.30;;;10.40;99.90;;;;;;4980503;28;20435;-74
2023/02/22 08:42:52;;;;;;;16.80;12.77;;;10.40;99.90;;;;;;4983668;28;20431;-71
2023/02/22 08:45:18;;;;;;;13.90;12.17;;;10.40;99.90;;;;;;4984406;28;21001;-71
2023/02/22 08:47:44;;;;;;;17.70;13.17;;;10.60;99.90;;;;;;4978834;28;20439;-68
2023/02/22 08:50:17;;;;;;;16.47;13.10;;;10.70;99.90;;;;;;4979842;28;20398;-69
2023/02/22 08:52:43;;;;;;;18.43;12.60;;;10.70;99.90;;;;;;4980835;28;20182;-69
2023/02/22 08:55:08;;;;;;;129.23;80.77;;;10.70;99.90;;;;;;4977689;28;20403;-68
2023/02/22 08:57:34;;;;;;;111.07;79.00;;;10.80;99.90;;;;;;4981474;28;20176;-69
2023/02/22 09:00:00;;;;;;;266.27;170.00;;;10.90;99.90;;;;;;4980419;28;20212;-69
2023/02/22 09:02:25;;;;;;;50.60;36.03;;;11.00;99.90;;;;;;4981865;28;20182;-70
2023/02/22 09:04:51;;;;;;;21.23;16.50;;;11.20;99.90;;;;;;4979776;28;20179;-69
2023/02/22 09:07:17;;;;;;;16.63;13.60;;;11.30;99.90;;;;;;4991377;28;20192;-74
2023/02/22 09:09:43;;;;;;;16.83;13.67;;;11.40;99.90;;;;;;4996485;28;20186;-72
2023/02/22 09:12:09;;;;;;;19.43;16.10;;;11.50;99.90;;;;;;4996698;28;20234;-71
2023/02/22 09:14:35;;;;;;;19.43;14.10;;;11.60;99.90;;;;;;4995282;28;20501;-71
2023/02/22 09:17:01;;;;;;;19.60;13.20;;;11.70;99.90;;;;;;4995871;28;20442;-68
2023/02/22 09:19:27;;;;;;;14.73;12.57;;;11.70;99.90;;;;;;4994377;28;20484;-66
2023/02/22 09:21:54;;;;;;;13.97;11.70;;;11.80;99.90;;;;;;4995998;28;20187;-69
2023/02/22 09:24:20;;;;;;;17.40;13.00;;;12.00;99.90;;;;;;4996014;28;20238;-69
2023/02/22 09:26:46;;;;;;;17.20;12.80;;;12.10;99.90;;;;;;4995632;28;20965;-69
2023/02/22 09:29:12;;;;;;;19.83;14.07;;;12.30;99.90;;;;;;4996519;28;20192;-69
2023/02/22 09:31:39;;;;;;;19.73;15.17;;;12.40;99.90;;;;;;4995539;28;20779;-69
2023/02/22 09:34:12;;;;;;;24.20;14.33;;;12.60;99.90;;;;;;4996714;28;20205;-69
2023/02/22 09:36:42;;;;;;;18.60;14.47;;;12.70;99.90;;;;;;4987812;28;20491;-68
2023/02/22 09:39:10;;;;;;;18.73;14.47;;;12.90;99.90;;;;;;4996403;28;20521;-69
2023/02/22 09:42:16;;;;;;;17.20;15.37;;;13.40;99.90;;;;;;4994632;28;20413;-70
2023/02/22 09:44:52;;;;;;;14.80;13.50;;;13.90;99.90;;;;;;4958977;28;20441;-69
2023/02/22 09:47:31;;;;;;;20.90;14.80;;;14.50;99.90;;;;;;4984909;28;20425;-70
2023/02/22 09:50:14;;;;;;;19.50;15.80;;;14.90;99.90;;;;;;4978997;28;20409;-70
2023/02/22 09:52:59;;;;;;;18.90;15.40;;;15.40;99.90;;;;;;4967085;28;20777;-70
2023/02/22 09:55:33;;;;;;;19.00;14.90;;;15.80;99.90;;;;;;4994355;28;20580;-69
2023/02/22 09:58:02;;;;;;;18.00;14.10;;;16.10;99.90;;;;;;4996231;28;20421;-69
2023/02/22 10:00:32;;;;;;;18.80;16.90;;;16.40;99.90;;;;;;4995431;28;20414;-70
2023/02/22 10:03:34;;;;;;;19.70;14.83;;;16.70;99.90;;;;;;4994945;28;20883;-70
2023/02/22 10:06:10;;;;;;;18.33;15.07;;;17.00;99.90;;;;;;4980853;28;20454;-70
2023/02/22 10:08:37;;;;;;;15.43;13.53;;;17.30;99.90;;;;;;4994434;28;20434;-70
2023/02/22 10:11:28;;;;;;;19.40;15.70;;;17.40;99.90;;;;;;4995861;28;20517;-70
2023/02/22 10:14:13;;;;;;;15.70;14.10;;;17.60;99.90;;;;;;4984762;28;20421;-69
2023/02/22 10:17:09;;;;;;;14.27;12.87;;;17.70;99.50;;;;;;4975727;28;20462;-70
2023/02/22 10:19:58;;;;;;;14.57;12.87;;;17.80;99.90;;;;;;4980946;28;20479;-70
2023/02/22 10:22:57;;;;;;;15.00;13.43;;;17.90;99.90;;;;;;4958056;28;20423;-70
2023/02/22 10:25:26;;;;;;;15.40;12.10;;;18.10;97.30;;;;;;4976716;28;20527;-70
2023/02/22 10:28:04;;;;;;;12.30;11.00;;;18.20;96.70;;;;;;4978193;28;20439;-70
2023/02/22 10:30:40;;;;;;;11.30;10.20;;;18.20;96.30;;;;;;4980448;28;20413;-70
2023/02/22 10:33:17;;;;;;;9.77;8.80;;;18.30;92.50;;;;;;4980811;28;20432;-70
2023/02/22 10:35:44;;;;;;;7.93;7.13;;;18.20;91.10;;;;;;4978924;28;20411;-70
2023/02/22 10:38:31;;;;;;;7.30;6.70;;;17.90;86.10;;;;;;4979248;28;20423;-70
2023/02/22 10:41:22;;;;;;;8.40;7.47;;;17.80;88.70;;;;;;4970401;28;20426;-70
2023/02/22 10:43:48;;;;;;;9.60;8.47;;;17.80;89.00;;;;;;4972955;28;20806;-70
2023/02/22 10:46:18;;;;;;;7.50;6.80;;;17.80;90.10;;;;;;4978383;28;20446;-70
2023/02/22 10:48:47;;;;;;;8.00;7.10;;;17.90;87.80;;;;;;4977907;28;20400;-70
2023/02/22 10:51:13;;;;;;;8.57;7.80;;;18.00;87.70;;;;;;4978523;28;20465;-70
2023/02/22 10:53:39;;;;;;;7.60;6.93;;;18.10;87.70;;;;;;4977624;28;20491;-70
2023/02/22 10:56:17;;;;;;;8.63;7.93;;;18.10;86.70;;;;;;4978219;28;20653;-70
2023/02/22 10:58:50;;;;;;;7.43;6.83;;;18.20;86.60;;;;;;4977864;28;20200;-70
2023/02/22 11:01:30;;;;;;;8.30;7.70;;;18.20;84.70;;;;;;4983094;28;20404;-70
2023/02/22 11:04:01;;;;;;;8.83;8.13;;;18.10;84.40;;;;;;4976693;28;20507;-70
2023/02/22 11:06:30;;;;;;;7.63;6.93;;;17.90;83.50;;;;;;4980645;28;20458;-70
2023/02/22 11:09:09;;;;;;;7.97;7.27;;;18.00;85.90;;;;;;4982491;28;20487;-70
2023/02/22 11:11:35;;;;;;;7.60;7.00;;;18.00;84.60;;;;;;4976852;28;21069;-70
2023/02/22 11:14:02;;;;;;;8.30;7.50;;;18.10;87.00;;;;;;4969190;28;20416;-69
2023/02/22 11:16:38;;;;;;;7.40;6.70;;;18.20;86.10;;;;;;4968498;28;20878;-69
2023/02/22 11:19:25;;;;;;;7.80;7.10;;;18.20;84.90;;;;;;4967807;28;20769;-69
2023/02/22 11:21:55;;;;;;;7.93;7.33;;;18.40;85.80;;;;;;4969102;28;20420;-69
2023/02/22 11:24:23;;;;;;;8.17;7.47;;;18.30;84.80;;;;;;4966599;28;20400;-69
2023/02/22 11:26:56;;;;;;;7.50;6.77;;;18.20;83.30;;;;;;4965680;28;20476;-69
2023/02/22 11:29:32;;;;;;;6.90;6.40;;;18.30;86.90;;;;;;4967424;28;20499;-68
2023/02/22 11:32:19;;;;;;;6.77;6.20;;;18.40;83.70;;;;;;4974895;28;20751;-69
2023/02/22 11:34:46;;;;;;;7.03;6.33;;;18.50;84.70;;;;;;4970616;28;20408;-68
2023/02/22 11:37:21;;;;;;;7.60;6.90;;;18.60;83.10;;;;;;4971136;28;20468;-68
2023/02/22 11:39:58;;;;;;;8.23;7.43;;;18.60;84.50;;;;;;4961976;28;20580;-68
2023/02/22 11:42:31;;;;;;;7.47;6.77;;;18.70;85.20;;;;;;5069314;28;20502;-68
2023/02/22 11:45:20;;;;;;;6.13;5.63;;;18.80;83.00;;;;;;5051585;28;20483;-68
2023/02/22 11:47:53;;;;;;;6.93;6.33;;;18.80;82.10;;;;;;5049477;28;20609;-68
2023/02/22 11:50:53;;;;;;;6.73;6.23;;;18.70;80.80;;;;;;5049744;28;20441;-68
2023/02/22 11:53:50;;;;;;;7.10;6.50;;;18.80;83.50;;;;;;5048503;28;20452;-68
2023/02/22 11:56:23;;;;;;;7.10;6.50;;;18.90;82.20;;;;;;5055680;28;20986;-68
2023/02/22 11:59:11;;;;;;;7.10;6.50;;;18.90;81.60;;;;;;5056994;28;20832;-67
2023/02/22 12:01:56;;;;;;;7.30;6.70;;;19.00;82.50;;;;;;5055088;28;21099;-67
2023/02/22 12:04:35;;;;;;;6.67;6.17;;;19.20;81.30;;;;;;5058388;28;20588;-66
2023/02/22 12:07:22;;;;;;;7.23;6.73;;;19.30;81.20;;;;;;5052722;28;20842;-66
2023/02/22 12:10:26;;;;;;;7.73;7.13;;;19.50;79.80;;;;;;5058170;28;20404;-66
2023/02/22 12:13:18;;;;;;;6.53;6.00;;;19.50;80.80;;;;;;5049942;28;20501;-73
2023/02/22 12:16:04;;;;;;;7.47;6.97;;;19.40;79.60;;;;;;5045959;28;20416;-67
2023/02/22 12:18:45;;;;;;;5.80;5.30;;;19.40;77.10;;;;;;5059132;28;20453;-68
2023/02/22 12:21:17;;;;;;;5.83;5.33;;;19.20;76.10;;;;;;5057575;28;20929;-68
2023/02/22 12:24:06;;;;;;;74.20;55.17;;;19.20;76.00;;;;;;5056105;28;20460;-67
2023/02/22 12:27:00;;;;;;;143.97;100.23;;;19.10;77.70;;;;;;5057117;28;20403;-68
2023/02/22 12:30:07;;;;;;;28.00;23.47;;;19.20;77.40;;;;;;5059072;28;20409;-67
2023/02/22 12:32:40;;;;;;;6.10;5.60;;;19.30;75.50;;;;;;5017046;28;20496;-68
2023/02/22 12:35:28;;;;;;;5.80;5.30;;;19.20;71.00;;;;;;5054267;28;20464;-68
2023/02/22 12:38:03;;;;;;;6.57;5.10;;;19.10;71.30;;;;;;5058582;28;20438;-73
2023/02/22 12:40:55;;;;;;;7.20;6.50;;;19.00;71.70;;;;;;5058945;28;20570;-74
2023/02/22 12:43:43;;;;;;;6.47;5.87;;;19.00;74.40;;;;;;5056417;28;20445;-74
2023/02/22 12:46:19;;;;;;;5.97;5.47;;;19.20;74.40;;;;;;5052763;28;20413;-74
2023/02/22 12:49:12;;;;;;;5.90;5.40;;;19.30;73.10;;;;;;5056228;28;20409;-74
2023/02/22 12:51:59;;;;;;;6.60;4.87;;;19.30;72.10;;;;;;5055810;28;20424;-73
2023/02/22 12:54:31;;;;;;;5.00;4.70;;;19.20;74.40;;;;;;5043721;28;20405;-74
2023/02/22 12:57:04;;;;;;;5.17;4.77;;;19.30;73.00;;;;;;5042619;28;20423;-74